Time;durP1;ratioP1;P1;durP2;ratioP2;P2;SDS_P1;SDS_P2;PMS_P1;PMS_P2;Temp;Humidity;BMP_temperature;BMP_pressure;BME280_temperature;BME280_humidity;BME280_pressure;Samples;Min_cycle;Max_cycle;Signal;HPM_P1;HPM_P2
2023/10/28 00:01:48;;;;;;;13.90;12.40;;;9.00;85.80;;;;;;6217418;28;20243;-80
2023/10/28 00:04:52;;;;;;;15.33;13.73;;;9.00;85.70;;;;;;6221769;28;20719;-83
2023/10/28 00:07:55;;;;;;;13.40;12.10;;;9.00;85.70;;;;;;6215585;28;20754;-85
2023/10/28 00:10:59;;;;;;;14.67;13.17;;;9.00;85.70;;;;;;6218123;28;20245;-82
2023/10/28 00:14:04;;;;;;;16.30;14.57;;;9.00;85.70;;;;;;6214510;28;20238;-83
2023/10/28 00:17:09;;;;;;;16.63;13.63;;;9.00;85.80;;;;;;6210422;28;20235;-83
2023/10/28 00:20:17;;;;;;;15.80;14.03;;;9.00;85.70;;;;;;6206040;28;20318;-83
2023/10/28 00:23:20;;;;;;;15.23;13.07;;;9.00;85.70;;;;;;6216807;28;20270;-83
2023/10/28 00:26:23;;;;;;;15.63;13.70;;;9.00;85.80;;;;;;6219231;28;20242;-82
2023/10/28 00:29:28;;;;;;;13.13;11.83;;;9.00;85.80;;;;;;6216384;28;20239;-84
2023/10/28 00:32:32;;;;;;;13.33;12.03;;;9.00;85.90;;;;;;6216198;28;20235;-83
2023/10/28 00:35:38;;;;;;;12.80;11.50;;;9.00;85.80;;;;;;6215094;28;20327;-84
2023/10/28 00:38:43;;;;;;;11.23;9.93;;;9.00;85.80;;;;;;6228916;28;20275;-82
2023/10/28 00:41:47;;;;;;;12.80;10.87;;;9.00;85.90;;;;;;6228377;28;20255;-81
2023/10/28 00:44:54;;;;;;;10.43;9.60;;;9.00;85.80;;;;;;6222459;28;20239;-83
2023/10/28 00:47:57;;;;;;;11.70;10.60;;;9.00;85.80;;;;;;6210251;28;20398;-83
2023/10/28 00:51:01;;;;;;;13.73;12.37;;;9.10;85.90;;;;;;6215997;28;20236;-83
2023/10/28 00:54:05;;;;;;;13.73;12.33;;;9.10;86.00;;;;;;6216259;28;20239;-83
2023/10/28 00:57:08;;;;;;;12.23;11.17;;;9.10;85.90;;;;;;6215289;28;20404;-83
2023/10/28 01:00:15;;;;;;;10.93;10.03;;;9.10;85.90;;;;;;6214918;28;20231;-86
2023/10/28 01:03:19;;;;;;;12.13;11.00;;;9.10;85.90;;;;;;6206140;28;20235;-85
2023/10/28 01:06:22;;;;;;;11.17;10.17;;;9.10;85.90;;;;;;6214798;28;20235;-83
2023/10/28 01:09:25;;;;;;;9.67;8.97;;;9.00;85.90;;;;;;6215633;28;20247;-85
2023/10/28 01:12:29;;;;;;;10.53;9.63;;;9.10;85.90;;;;;;6215492;28;20322;-83
2023/10/28 01:15:33;;;;;;;10.40;9.50;;;9.10;85.90;;;;;;6212901;28;20326;-86
2023/10/28 01:18:37;;;;;;;11.77;10.70;;;9.10;85.90;;;;;;6214550;28;20243;-85
2023/10/28 01:21:42;;;;;;;9.90;9.00;;;9.00;85.90;;;;;;6215880;28;20782;-84
2023/10/28 01:24:45;;;;;;;9.97;9.07;;;9.10;86.00;;;;;;6214635;28;21002;-84
2023/10/28 01:27:49;;;;;;;11.60;10.40;;;9.10;86.10;;;;;;6205987;28;20242;-85
2023/10/28 01:30:52;;;;;;;12.00;10.80;;;9.20;86.00;;;;;;6214923;28;20235;-83
2023/10/28 01:33:55;;;;;;;12.07;10.97;;;9.10;86.00;;;;;;6214596;28;20243;-81
2023/10/28 01:37:00;;;;;;;12.17;10.97;;;9.10;85.80;;;;;;6214703;28;20235;-84
2023/10/28 01:40:09;;;;;;;11.23;10.13;;;9.10;85.70;;;;;;6257126;28;20241;-87
2023/10/28 01:43:14;;;;;;;11.27;10.17;;;9.00;85.70;;;;;;6237632;28;21127;-84
2023/10/28 01:46:17;;;;;;;11.63;10.63;;;9.00;85.80;;;;;;6252201;28;20246;-85
2023/10/28 01:49:20;;;;;;;10.63;9.73;;;9.00;85.70;;;;;;6238122;28;20234;-85
2023/10/28 01:52:25;;;;;;;9.57;8.77;;;9.00;85.80;;;;;;6241131;28;20379;-83
2023/10/28 01:55:28;;;;;;;10.40;9.50;;;9.00;85.90;;;;;;6250059;28;20239;-84
2023/10/28 01:58:32;;;;;;;10.30;9.40;;;9.00;85.90;;;;;;6246152;28;20282;-83
2023/10/28 02:01:36;;;;;;;9.70;8.83;;;9.00;85.90;;;;;;6236886;28;20243;-83
2023/10/28 02:04:39;;;;;;;8.83;8.03;;;9.00;86.00;;;;;;6244656;28;20721;-85
2023/10/28 02:07:44;;;;;;;11.30;8.67;;;9.00;86.00;;;;;;6239671;28;20234;-85
2023/10/28 02:10:48;;;;;;;9.20;8.40;;;9.00;85.90;;;;;;6230189;28;20241;-85
2023/10/28 02:13:52;;;;;;;9.43;8.63;;;9.00;85.90;;;;;;6241657;28;20330;-85
2023/10/28 02:16:56;;;;;;;8.90;8.10;;;9.00;85.90;;;;;;6225233;28;20298;-85
2023/10/28 02:19:59;;;;;;;9.23;8.53;;;9.00;85.90;;;;;;6247522;28;20745;-83
2023/10/28 02:23:04;;;;;;;8.23;7.63;;;9.00;86.00;;;;;;6242027;28;20241;-85
2023/10/28 02:26:07;;;;;;;9.10;8.27;;;9.00;86.10;;;;;;6238714;28;20237;-84
2023/10/28 02:29:10;;;;;;;12.33;11.07;;;9.00;86.00;;;;;;6262199;28;20237;-84
2023/10/28 02:32:13;;;;;;;10.67;9.73;;;9.00;86.00;;;;;;6248261;28;20241;-84
2023/10/28 02:35:17;;;;;;;9.17;8.47;;;9.00;86.00;;;;;;6249247;28;20248;-84
2023/10/28 02:38:24;;;;;;;8.60;8.00;;;9.00;86.10;;;;;;6251189;28;20736;-85
2023/10/28 02:41:27;;;;;;;8.40;7.80;;;9.00;86.10;;;;;;6246943;28;20372;-84
2023/10/28 02:44:31;;;;;;;9.33;8.43;;;9.00;86.20;;;;;;6238032;28;20734;-84
2023/10/28 02:47:34;;;;;;;9.67;8.63;;;9.00;86.20;;;;;;6246091;28;20238;-85
2023/10/28 02:50:37;;;;;;;10.03;8.93;;;9.00;86.30;;;;;;6250555;28;20234;-83
2023/10/28 02:53:42;;;;;;;9.17;8.43;;;9.00;86.30;;;;;;6261260;28;20238;-85
2023/10/28 02:56:46;;;;;;;11.63;8.90;;;9.00;86.30;;;;;;6259633;28;21329;-85
2023/10/28 02:59:49;;;;;;;9.87;8.87;;;9.00;86.30;;;;;;6246677;28;20234;-85
2023/10/28 03:02:55;;;;;;;11.50;8.67;;;8.90;86.40;;;;;;6261471;28;20264;-86
2023/10/28 03:05:58;;;;;;;9.67;8.67;;;8.90;86.40;;;;;;6261857;28;20241;-85
2023/10/28 03:09:03;;;;;;;8.20;7.50;;;8.90;86.50;;;;;;6234331;28;20933;-85
2023/10/28 03:12:06;;;;;;;8.20;7.50;;;8.90;86.50;;;;;;6233838;28;20234;-84
2023/10/28 03:15:10;;;;;;;8.30;7.63;;;8.90;86.50;;;;;;6236685;28;20231;-83
2023/10/28 03:18:14;;;;;;;9.90;8.73;;;8.90;86.50;;;;;;6247299;28;20380;-86
2023/10/28 03:21:21;;;;;;;7.57;6.87;;;8.90;86.50;;;;;;6256630;28;20237;-85
2023/10/28 03:24:25;;;;;;;7.80;7.20;;;8.90;86.50;;;;;;6257531;28;20319;-84
2023/10/28 03:27:29;;;;;;;8.87;8.17;;;8.90;86.40;;;;;;6239715;28;20780;-81
2023/10/28 03:30:33;;;;;;;8.30;7.50;;;8.90;86.50;;;;;;6228782;28;20899;-85
2023/10/28 03:33:36;;;;;;;8.37;7.57;;;8.80;86.50;;;;;;6232438;28;20249;-83
2023/10/28 03:36:39;;;;;;;8.30;7.60;;;8.80;86.60;;;;;;6247560;28;20242;-85
2023/10/28 03:39:44;;;;;;;7.00;6.50;;;8.90;86.60;;;;;;6251247;28;20253;-83
2023/10/28 03:42:48;;;;;;;7.13;6.63;;;8.90;86.60;;;;;;6245040;28;20331;-85
2023/10/28 03:45:51;;;;;;;6.60;6.30;;;8.90;86.50;;;;;;6244007;28;20292;-88
2023/10/28 03:48:59;;;;;;;7.13;6.63;;;8.90;86.60;;;;;;6253453;28;20230;-84
2023/10/28 03:52:02;;;;;;;6.80;6.40;;;8.90;86.50;;;;;;6255640;28;20317;-84
2023/10/28 03:55:08;;;;;;;6.90;6.47;;;8.90;86.50;;;;;;6258199;28;20730;-86
2023/10/28 03:58:11;;;;;;;6.00;5.50;;;8.90;86.50;;;;;;6250523;28;20314;-83
2023/10/28 04:01:15;;;;;;;5.97;5.67;;;8.90;86.30;;;;;;6257255;28;20296;-84
2023/10/28 04:04:19;;;;;;;6.27;5.87;;;8.90;86.40;;;;;;6253433;28;20234;-86
2023/10/28 04:07:22;;;;;;;5.60;5.30;;;8.80;86.40;;;;;;6236406;28;20250;-86
2023/10/28 04:10:27;;;;;;;6.13;5.80;;;8.80;86.50;;;;;;6259859;28;20869;-86
2023/10/28 04:13:30;;;;;;;5.70;5.30;;;8.80;86.50;;;;;;6249959;28;20873;-85
2023/10/28 04:16:36;;;;;;;6.47;6.00;;;8.80;86.60;;;;;;6249053;28;20250;-83
2023/10/28 04:19:39;;;;;;;5.67;5.37;;;8.80;86.50;;;;;;6242816;28;20438;-86
2023/10/28 04:22:43;;;;;;;5.83;5.50;;;8.90;86.50;;;;;;6251106;28;20241;-85
2023/10/28 04:25:48;;;;;;;5.40;5.10;;;8.80;86.50;;;;;;6243472;28;20840;-85
2023/10/28 04:28:51;;;;;;;7.23;6.60;;;8.80;86.40;;;;;;6249132;28;20234;-84
2023/10/28 04:31:54;;;;;;;6.20;5.70;;;8.80;86.50;;;;;;6249982;28;20238;-83
2023/10/28 04:34:58;;;;;;;6.67;6.10;;;8.80;86.60;;;;;;6241612;28;20238;-86
2023/10/28 04:38:17;;;;;;;6.13;5.73;;;8.80;86.60;;;;;;6241796;28;20246;-85
2023/10/28 04:41:22;;;;;;;5.37;5.10;;;8.80;86.60;;;;;;6245961;28;20251;-84
2023/10/28 04:44:25;;;;;;;5.60;5.40;;;8.80;86.50;;;;;;6211914;28;20755;-84
2023/10/28 04:47:28;;;;;;;5.60;5.30;;;8.80;86.50;;;;;;6211956;28;20250;-84
2023/10/28 04:50:31;;;;;;;5.10;4.90;;;8.80;86.50;;;;;;6213273;28;20239;-84
2023/10/28 04:53:34;;;;;;;5.77;5.47;;;8.80;86.50;;;;;;6214846;28;20301;-84
2023/10/28 04:56:39;;;;;;;5.30;5.10;;;8.80;86.50;;;;;;6202608;28;20278;-85
2023/10/28 04:59:42;;;;;;;5.73;5.43;;;8.80;86.30;;;;;;6214500;28;20242;-86
2023/10/28 05:02:45;;;;;;;5.07;4.87;;;8.80;86.10;;;;;;6207111;28;20243;-85
2023/10/28 05:05:48;;;;;;;5.73;5.43;;;8.70;86.40;;;;;;6209465;28;20243;-82
2023/10/28 05:08:52;;;;;;;4.73;4.63;;;8.70;86.40;;;;;;6219487;28;20241;-83
2023/10/28 05:11:57;;;;;;;5.60;5.30;;;8.70;86.40;;;;;;6234134;28;20903;-83
2023/10/28 05:15:00;;;;;;;5.53;5.23;;;8.80;86.40;;;;;;6230318;28;20243;-85
2023/10/28 05:18:03;;;;;;;5.37;5.10;;;8.80;86.00;;;;;;6236213;28;20316;-83
2023/10/28 05:21:08;;;;;;;5.20;5.00;;;8.70;86.00;;;;;;6238674;28;20273;-85
2023/10/28 05:24:12;;;;;;;5.13;4.93;;;8.60;86.00;;;;;;6240968;28;20357;-84
2023/10/28 05:27:17;;;;;;;5.83;5.53;;;8.60;86.10;;;;;;6231425;28;20231;-84
2023/10/28 05:30:21;;;;;;;5.37;5.10;;;8.60;86.10;;;;;;6238083;28;20231;-85
2023/10/28 05:33:24;;;;;;;6.50;6.10;;;8.60;86.10;;;;;;6234579;28;20880;-85
2023/10/28 05:36:27;;;;;;;6.97;6.47;;;8.60;86.10;;;;;;6231823;28;20334;-86
2023/10/28 05:39:30;;;;;;;6.07;5.73;;;8.60;86.20;;;;;;6236661;28;20238;-83
2023/10/28 05:42:35;;;;;;;6.37;6.07;;;8.60;86.20;;;;;;6230601;28;20750;-84
2023/10/28 05:45:39;;;;;;;6.80;6.30;;;8.70;86.20;;;;;;6238748;28;20325;-85
2023/10/28 05:48:42;;;;;;;7.93;7.20;;;8.60;86.10;;;;;;6237327;28;20808;-85
2023/10/28 05:51:45;;;;;;;7.17;6.57;;;8.70;86.00;;;;;;6221041;28;20706;-84
2023/10/28 05:54:48;;;;;;;6.93;6.33;;;8.70;86.00;;;;;;6236970;28;20288;-86
2023/10/28 05:57:53;;;;;;;5.80;5.50;;;8.60;86.10;;;;;;6237407;28;20241;-85
2023/10/28 06:00:59;;;;;;;6.23;5.93;;;8.60;86.20;;;;;;6237987;28;20866;-85
2023/10/28 06:04:02;;;;;;;5.47;5.17;;;8.80;86.20;;;;;;6238635;28;20235;-85
2023/10/28 06:07:07;;;;;;;6.40;6.10;;;8.80;86.10;;;;;;6246204;28;20646;-85
2023/10/28 06:10:11;;;;;;;7.03;6.47;;;8.70;86.10;;;;;;6240920;28;20234;-86
2023/10/28 06:13:15;;;;;;;6.97;6.57;;;8.80;86.20;;;;;;6237120;28;20234;-84
2023/10/28 06:16:19;;;;;;;6.47;6.17;;;8.70;86.20;;;;;;6253837;28;20237;-85
2023/10/28 06:19:23;;;;;;;6.77;6.37;;;8.80;86.10;;;;;;6253000;28;20295;-85
2023/10/28 06:22:27;;;;;;;6.57;6.27;;;8.80;86.20;;;;;;6255372;28;20329;-86
2023/10/28 06:25:30;;;;;;;7.70;7.20;;;8.80;86.20;;;;;;6241314;28;20237;-86
2023/10/28 06:28:35;;;;;;;7.37;6.97;;;8.90;86.30;;;;;;6243920;28;20622;-85
2023/10/28 06:31:43;;;;;;;7.83;7.30;;;8.90;86.20;;;;;;6238082;28;20254;-86
2023/10/28 06:34:47;;;;;;;7.00;6.60;;;8.90;86.10;;;;;;6240232;28;20250;-86
2023/10/28 06:37:50;;;;;;;8.40;7.90;;;9.00;86.30;;;;;;6238132;28;20234;-85
2023/10/28 06:40:53;;;;;;;9.20;8.30;;;9.00;85.80;;;;;;6242262;28;20237;-84
2023/10/28 06:44:02;;;;;;;9.43;8.53;;;8.90;85.50;;;;;;6239030;28;20238;-86
2023/10/28 06:47:06;;;;;;;7.30;6.83;;;9.00;85.40;;;;;;6238829;28;20245;-84
2023/10/28 06:50:10;;;;;;;8.63;7.93;;;8.90;85.50;;;;;;6248448;28;20233;-85
2023/10/28 06:53:13;;;;;;;8.27;7.67;;;9.00;85.50;;;;;;6234748;28;20242;-84
2023/10/28 06:56:17;;;;;;;8.07;7.57;;;9.00;85.50;;;;;;6250351;28;20229;-85
2023/10/28 06:59:23;;;;;;;8.30;7.80;;;9.00;85.50;;;;;;6254031;28;20238;-84
2023/10/28 07:02:27;;;;;;;8.50;8.00;;;9.00;85.50;;;;;;6251774;28;20241;-85
2023/10/28 07:05:30;;;;;;;9.80;8.83;;;9.00;85.40;;;;;;6250686;28;20229;-85
2023/10/28 07:08:34;;;;;;;8.40;7.90;;;9.00;85.30;;;;;;6243879;28;20238;-84
2023/10/28 07:11:38;;;;;;;9.03;8.47;;;9.00;85.40;;;;;;6255963;28;20364;-83
2023/10/28 07:14:43;;;;;;;8.87;8.27;;;9.00;85.40;;;;;;6242061;28;20329;-85
2023/10/28 07:17:46;;;;;;;8.60;8.10;;;9.00;85.40;;;;;;6246528;28;20279;-84
2023/10/28 07:20:51;;;;;;;9.20;8.50;;;9.00;85.50;;;;;;6218837;28;20235;-85
2023/10/28 07:23:55;;;;;;;9.10;8.60;;;9.00;85.40;;;;;;6216883;28;20320;-86
2023/10/28 07:26:58;;;;;;;7.77;7.37;;;9.00;85.50;;;;;;6207134;28;20235;-86
2023/10/28 07:30:03;;;;;;;8.87;8.27;;;9.10;85.50;;;;;;6229422;28;20235;-84
2023/10/28 07:33:06;;;;;;;9.10;8.60;;;9.10;85.40;;;;;;6222232;28;20258;-84
2023/10/28 07:36:12;;;;;;;9.23;8.63;;;9.10;85.30;;;;;;6218515;28;20247;-85
2023/10/28 07:39:16;;;;;;;7.10;6.70;;;9.10;85.30;;;;;;6214245;28;20242;-84
2023/10/28 07:42:21;;;;;;;8.87;8.20;;;9.20;85.40;;;;;;6222149;28;20231;-84
2023/10/28 07:45:25;;;;;;;9.27;8.57;;;9.20;85.40;;;;;;6217825;28;20232;-86
2023/10/28 07:48:29;;;;;;;8.83;8.33;;;9.20;85.10;;;;;;6216982;28;20309;-85
2023/10/28 07:51:35;;;;;;;9.70;9.10;;;9.20;85.10;;;;;;6214424;28;20322;-85
2023/10/28 07:54:38;;;;;;;9.63;8.93;;;9.20;85.10;;;;;;6215598;28;20240;-86
2023/10/28 07:57:43;;;;;;;9.73;8.93;;;9.20;85.10;;;;;;6207533;28;20727;-85
2023/10/28 08:00:48;;;;;;;9.80;9.03;;;9.30;85.20;;;;;;6220849;28;20254;-84
2023/10/28 08:03:53;;;;;;;10.27;9.47;;;9.30;85.00;;;;;;6215485;28;20236;-85
2023/10/28 08:06:58;;;;;;;10.40;9.60;;;9.30;85.00;;;;;;6218415;28;20737;-84
2023/10/28 08:10:01;;;;;;;9.83;9.23;;;9.40;85.00;;;;;;6210365;28;20247;-85
2023/10/28 08:13:04;;;;;;;10.77;9.97;;;9.40;85.00;;;;;;6215456;28;20237;-85
2023/10/28 08:16:09;;;;;;;9.70;9.00;;;9.40;84.90;;;;;;6217473;28;20596;-83
2023/10/28 08:19:13;;;;;;;11.13;10.23;;;9.50;85.00;;;;;;6217661;28;20753;-83
2023/10/28 08:22:16;;;;;;;9.80;9.10;;;9.60;85.10;;;;;;6217642;28;20232;-85
2023/10/28 08:25:22;;;;;;;11.30;10.40;;;9.80;84.60;;;;;;6211894;28;20239;-85
2023/10/28 08:28:27;;;;;;;10.30;9.60;;;9.80;84.20;;;;;;6215821;28;20307;-85
2023/10/28 08:31:33;;;;;;;11.20;10.30;;;10.00;83.60;;;;;;6215981;28;20310;-85
2023/10/28 08:34:36;;;;;;;9.63;8.93;;;10.00;83.30;;;;;;6215917;28;20247;-85
2023/10/28 08:37:39;;;;;;;11.47;10.57;;;10.00;83.50;;;;;;6205029;28;20370;-85
2023/10/28 08:40:45;;;;;;;11.33;10.53;;;10.00;83.60;;;;;;6221620;28;20275;-85
2023/10/28 08:43:54;;;;;;;10.97;10.07;;;10.00;83.50;;;;;;6221568;28;20243;-86
2023/10/28 08:47:06;;;;;;;11.63;10.73;;;10.10;83.30;;;;;;6219346;28;20281;-81
2023/10/28 08:50:10;;;;;;;10.90;10.13;;;10.20;83.40;;;;;;6242394;28;20253;-84
2023/10/28 08:53:16;;;;;;;10.03;9.43;;;10.30;82.60;;;;;;6253958;28;20242;-83
2023/10/28 08:56:24;;;;;;;11.67;10.87;;;10.30;83.00;;;;;;6228470;28;20868;-84
2023/10/28 08:59:28;;;;;;;12.37;11.37;;;10.40;82.90;;;;;;6245751;28;20250;-83
2023/10/28 09:02:35;;;;;;;11.63;10.73;;;10.40;82.20;;;;;;6250853;28;20317;-84
2023/10/28 09:05:38;;;;;;;11.57;10.67;;;10.40;82.60;;;;;;6234307;28;20241;-86
2023/10/28 09:08:41;;;;;;;11.17;10.37;;;10.40;82.30;;;;;;6222201;28;20871;-86
2023/10/28 09:11:47;;;;;;;13.33;12.13;;;10.40;82.20;;;;;;6238932;28;20239;-85
2023/10/28 09:14:50;;;;;;;12.67;11.67;;;10.50;82.10;;;;;;6235492;28;20243;-83
2023/10/28 09:17:55;;;;;;;10.53;9.83;;;10.50;81.80;;;;;;6245843;28;20364;-83
2023/10/28 09:20:59;;;;;;;13.13;12.03;;;10.50;81.90;;;;;;6241025;28;20231;-83
2023/10/28 09:24:02;;;;;;;13.87;12.67;;;10.60;81.80;;;;;;6232408;28;20393;-84
2023/10/28 09:27:06;;;;;;;13.83;12.63;;;10.50;81.30;;;;;;6256505;28;20642;-84
2023/10/28 09:30:11;;;;;;;13.63;12.43;;;10.50;81.50;;;;;;6241023;28;20241;-85
2023/10/28 09:33:17;;;;;;;13.17;12.07;;;10.50;81.50;;;;;;6236056;28;20238;-83
2023/10/28 09:36:21;;;;;;;12.27;11.27;;;10.60;81.40;;;;;;6238366;28;20253;-84
2023/10/28 09:39:26;;;;;;;13.20;12.17;;;10.60;81.70;;;;;;6242483;28;20242;-84
2023/10/28 09:42:32;;;;;;;14.00;12.90;;;10.70;81.60;;;;;;6235314;28;20237;-84
2023/10/28 09:45:36;;;;;;;13.13;12.03;;;10.70;80.70;;;;;;6251648;28;20276;-84
2023/10/28 09:48:45;;;;;;;13.83;12.53;;;10.70;81.00;;;;;;6235700;28;20312;-83
2023/10/28 09:51:53;;;;;;;15.83;14.40;;;10.80;80.80;;;;;;6238869;28;20734;-85
2023/10/28 09:55:04;;;;;;;12.90;11.90;;;10.80;81.10;;;;;;6237097;28;20242;-83
2023/10/28 09:58:17;;;;;;;13.33;12.13;;;11.00;80.80;;;;;;6229061;28;20982;-83
2023/10/28 10:01:29;;;;;;;13.27;12.17;;;11.30;81.00;;;;;;6238920;28;20505;-85
2023/10/28 10:04:41;;;;;;;14.50;13.17;;;11.40;79.80;;;;;;6240165;28;20239;-85
2023/10/28 10:07:45;;;;;;;13.30;12.20;;;11.50;78.50;;;;;;6238049;28;20876;-85
2023/10/28 10:10:50;;;;;;;14.00;12.70;;;11.50;78.50;;;;;;6238321;28;20238;-84
2023/10/28 10:13:55;;;;;;;13.83;12.73;;;11.50;78.50;;;;;;6237381;28;20242;-84
2023/10/28 10:17:06;;;;;;;13.10;12.13;;;11.50;78.50;;;;;;6231961;28;20311;-82
2023/10/28 10:20:13;;;;;;;14.87;13.50;;;11.60;78.40;;;;;;6227823;28;20626;-84
2023/10/28 10:23:17;;;;;;;12.30;11.33;;;11.70;78.10;;;;;;6227620;28;20238;-83
2023/10/28 10:26:25;;;;;;;11.73;10.93;;;11.70;77.90;;;;;;6229167;28;20883;-82
2023/10/28 10:29:40;;;;;;;12.47;11.57;;;11.80;78.10;;;;;;6239763;28;20234;-82
2023/10/28 10:32:47;;;;;;;14.47;13.27;;;11.90;77.90;;;;;;6240734;28;20245;-84
2023/10/28 10:35:54;;;;;;;13.27;12.30;;;11.90;77.10;;;;;;6250945;28;20723;-86
2023/10/28 10:39:11;;;;;;;12.17;11.27;;;11.90;77.70;;;;;;6247033;28;20239;-83
2023/10/28 10:42:14;;;;;;;12.83;11.87;;;11.90;77.60;;;;;;6242314;28;20238;-81
2023/10/28 10:45:20;;;;;;;15.33;13.83;;;11.90;77.80;;;;;;6242742;28;20234;-84
2023/10/28 10:48:25;;;;;;;14.67;13.40;;;11.90;77.20;;;;;;6237081;28;20234;-82
2023/10/28 10:51:30;;;;;;;14.93;13.57;;;11.90;77.50;;;;;;6242197;28;20238;-83
2023/10/28 10:54:35;;;;;;;13.70;12.50;;;11.90;77.20;;;;;;6252357;28;20817;-82
2023/10/28 10:57:38;;;;;;;13.30;12.30;;;12.00;77.20;;;;;;6252031;28;20231;-82
2023/10/28 11:00:41;;;;;;;13.50;12.40;;;12.10;77.20;;;;;;6244268;28;20923;-83
2023/10/28 11:03:45;;;;;;;14.17;13.07;;;12.00;77.20;;;;;;6251340;28;20237;-83
2023/10/28 11:06:51;;;;;;;12.40;11.50;;;12.00;77.50;;;;;;6256141;28;20226;-83
2023/10/28 11:09:56;;;;;;;11.67;10.87;;;12.10;77.70;;;;;;6236965;28;20227;-82
2023/10/28 11:13:01;;;;;;;14.03;12.83;;;12.20;77.70;;;;;;6250617;28;20795;-84
2023/10/28 11:16:06;;;;;;;15.27;13.97;;;12.30;77.50;;;;;;6240257;28;20703;-83
2023/10/28 11:19:10;;;;;;;14.17;12.87;;;12.50;76.90;;;;;;6245921;28;20245;-82
2023/10/28 11:22:16;;;;;;;13.33;12.27;;;12.50;76.90;;;;;;6257132;28;20717;-83
2023/10/28 11:25:20;;;;;;;13.93;12.83;;;12.70;76.70;;;;;;6248639;28;20313;-83
2023/10/28 11:28:33;;;;;;;13.80;12.70;;;12.70;76.00;;;;;;6246877;28;20340;-82
2023/10/28 11:31:39;;;;;;;10.80;10.00;;;12.80;76.10;;;;;;6240706;28;20322;-82
2023/10/28 11:34:44;;;;;;;11.03;10.23;;;12.90;76.10;;;;;;6249091;28;20246;-83
2023/10/28 11:37:50;;;;;;;10.77;10.07;;;13.00;75.30;;;;;;6233726;28;20302;-83
2023/10/28 11:41:03;;;;;;;10.93;10.03;;;13.00;75.50;;;;;;6253348;28;20752;-82
2023/10/28 11:44:10;;;;;;;8.93;8.33;;;13.00;74.80;;;;;;6245804;28;20237;-83
2023/10/28 11:47:15;;;;;;;10.30;9.43;;;12.80;74.80;;;;;;6258274;28;20757;-83
2023/10/28 11:50:18;;;;;;;8.57;8.07;;;12.90;75.30;;;;;;6249625;28;20234;-83
2023/10/28 11:53:25;;;;;;;9.20;8.60;;;13.00;75.40;;;;;;6230917;28;20926;-83
2023/10/28 11:56:31;;;;;;;8.83;8.33;;;13.00;75.00;;;;;;6253484;28;20243;-83
2023/10/28 11:59:35;;;;;;;9.80;9.10;;;13.00;74.70;;;;;;6235637;28;20235;-84
2023/10/28 12:02:39;;;;;;;9.43;8.83;;;12.90;74.60;;;;;;6243584;28;20255;-83
2023/10/28 12:05:42;;;;;;;9.60;9.00;;;12.70;75.00;;;;;;6249672;28;20238;-84
2023/10/28 12:08:48;;;;;;;10.40;9.60;;;12.70;75.30;;;;;;6247118;28;20234;-84
2023/10/28 12:11:52;;;;;;;9.73;9.13;;;12.60;75.70;;;;;;6250265;28;20222;-82
2023/10/28 12:14:55;;;;;;;11.10;10.30;;;12.50;75.20;;;;;;6245319;28;20262;-81
2023/10/28 12:17:58;;;;;;;11.67;10.67;;;12.50;75.70;;;;;;6251469;28;20991;-83
2023/10/28 12:21:02;;;;;;;10.97;10.17;;;12.50;76.00;;;;;;6244713;28;20240;-81
2023/10/28 12:24:07;;;;;;;11.63;10.73;;;12.40;76.30;;;;;;6255879;28;20250;-84
2023/10/28 12:27:11;;;;;;;11.70;10.80;;;12.20;76.60;;;;;;6254410;28;20230;-83
2023/10/28 12:30:14;;;;;;;11.60;10.80;;;12.30;76.90;;;;;;6242632;28;20287;-82
2023/10/28 12:33:17;;;;;;;11.17;10.30;;;12.30;77.10;;;;;;6256203;28;20237;-82
2023/10/28 12:36:21;;;;;;;12.60;11.50;;;12.30;77.20;;;;;;6243405;28;20887;-83
2023/10/28 12:39:27;;;;;;;12.90;11.57;;;12.40;77.40;;;;;;6250784;28;20241;-82
2023/10/28 12:42:30;;;;;;;11.00;10.10;;;12.50;77.20;;;;;;6242930;28;20241;-82
2023/10/28 12:45:33;;;;;;;10.43;9.53;;;12.50;77.30;;;;;;6245712;28;20264;-82
2023/10/28 12:48:36;;;;;;;12.60;11.27;;;12.50;77.30;;;;;;6256320;28;20884;-82
2023/10/28 12:51:39;;;;;;;9.93;9.13;;;12.50;77.20;;;;;;6246411;28;20242;-82
2023/10/28 12:54:46;;;;;;;9.47;8.90;;;12.40;77.40;;;;;;6256389;28;20246;-82
2023/10/28 12:57:50;;;;;;;10.63;9.67;;;12.40;77.50;;;;;;6249487;28;20360;-84
2023/10/28 13:00:54;;;;;;;11.17;10.13;;;12.30;77.80;;;;;;6257719;28;20847;-83
2023/10/28 13:03:58;;;;;;;12.20;11.20;;;12.30;78.00;;;;;;6258458;28;20245;-82
2023/10/28 13:07:01;;;;;;;12.37;11.17;;;12.20;78.30;;;;;;6272912;28;20912;-82
2023/10/28 13:10:07;;;;;;;11.77;10.73;;;12.10;79.20;;;;;;6258088;28;20226;-84
2023/10/28 13:13:10;;;;;;;10.73;9.87;;;12.00;79.30;;;;;;6254607;28;20288;-82
2023/10/28 13:16:13;;;;;;;10.63;9.83;;;12.10;79.40;;;;;;6249985;28;20233;-85
2023/10/28 13:19:16;;;;;;;11.33;10.43;;;12.20;79.60;;;;;;6260821;28;20256;-83
2023/10/28 13:22:20;;;;;;;11.03;10.23;;;12.20;79.80;;;;;;6241573;28;20242;-83
2023/10/28 13:25:26;;;;;;;10.43;9.63;;;12.20;79.80;;;;;;6239463;28;20750;-84
2023/10/28 13:28:29;;;;;;;10.73;9.87;;;12.20;79.90;;;;;;6231298;28;20841;-82
2023/10/28 13:31:35;;;;;;;10.83;9.97;;;12.20;80.00;;;;;;6245731;28;20242;-84
2023/10/28 13:34:38;;;;;;;12.33;11.33;;;12.30;80.00;;;;;;6272081;28;20242;-85
2023/10/28 13:37:41;;;;;;;11.57;10.63;;;12.30;80.10;;;;;;6262472;28;20258;-84
2023/10/28 13:40:46;;;;;;;12.67;11.43;;;12.30;80.20;;;;;;6248933;28;20315;-85
2023/10/28 13:43:49;;;;;;;14.00;12.70;;;12.30;80.40;;;;;;6247550;28;20238;-83
2023/10/28 13:46:52;;;;;;;12.07;11.07;;;12.30;80.40;;;;;;6240816;28;20872;-83
2023/10/28 13:49:56;;;;;;;13.00;11.90;;;12.40;80.60;;;;;;6244946;28;20224;-83
2023/10/28 13:52:59;;;;;;;12.90;11.80;;;12.50;80.60;;;;;;6278664;28;20233;-84
2023/10/28 13:56:06;;;;;;;13.10;12.00;;;12.50;80.40;;;;;;6245764;28;20230;-84
2023/10/28 13:59:10;;;;;;;16.70;12.30;;;12.50;79.70;;;;;;6258140;28;20316;-86
2023/10/28 14:02:13;;;;;;;11.53;10.63;;;12.50;79.70;;;;;;6249778;28;20238;-83
2023/10/28 14:05:17;;;;;;;12.60;11.57;;;12.50;79.90;;;;;;6245871;28;20319;-82
2023/10/28 14:08:20;;;;;;;16.00;12.70;;;12.40;80.00;;;;;;6243296;28;20253;-83
2023/10/28 14:11:26;;;;;;;12.07;11.10;;;12.30;80.30;;;;;;6249911;28;20729;-84
2023/10/28 14:14:30;;;;;;;11.73;10.73;;;12.40;80.30;;;;;;6238933;28;20828;-85
2023/10/28 14:17:34;;;;;;;12.53;11.33;;;12.50;80.40;;;;;;6256449;28;20253;-82
2023/10/28 14:20:37;;;;;;;13.70;12.37;;;12.50;80.40;;;;;;6254870;28;20295;-84
2023/10/28 14:23:40;;;;;;;11.83;10.73;;;12.50;80.30;;;;;;6251225;28;20359;-84
2023/10/28 14:26:45;;;;;;;11.50;10.30;;;12.50;80.30;;;;;;6244978;28;20240;-86
2023/10/28 14:29:52;;;;;;;11.33;10.17;;;12.50;79.50;;;;;;6243220;28;20235;-84
2023/10/28 14:32:57;;;;;;;10.97;9.97;;;12.50;79.70;;;;;;6247974;28;20265;-83
2023/10/28 14:36:07;;;;;;;11.67;10.43;;;12.50;79.70;;;;;;6244565;28;20238;-82
2023/10/28 14:39:10;;;;;;;11.63;10.10;;;12.40;80.00;;;;;;6251586;28;20231;-84
2023/10/28 14:42:15;;;;;;;11.20;10.40;;;12.30;80.30;;;;;;6241205;28;20240;-83
2023/10/28 14:45:19;;;;;;;13.70;12.40;;;12.30;80.40;;;;;;6271200;28;20223;-83
2023/10/28 14:48:23;;;;;;;13.00;11.73;;;12.20;80.80;;;;;;6280142;28;20222;-87
2023/10/28 14:51:27;;;;;;;12.80;11.60;;;12.20;80.90;;;;;;6274706;28;20233;-80
2023/10/28 14:54:30;;;;;;;14.00;11.47;;;12.10;81.00;;;;;;6270713;28;20249;-80
2023/10/28 14:57:37;;;;;;;13.00;11.90;;;12.10;81.10;;;;;;6283932;28;20233;-81
2023/10/28 15:01:05;;;;;;;14.90;13.47;;;12.10;81.10;;;;;;6282953;28;20218;-79
2023/10/28 15:04:08;;;;;;;11.53;10.73;;;12.00;81.20;;;;;;6278413;28;20487;-80
2023/10/28 15:07:11;;;;;;;11.53;10.63;;;11.90;81.30;;;;;;6266693;28;20231;-79
2023/10/28 15:10:15;;;;;;;13.13;12.13;;;11.90;81.50;;;;;;6287394;28;20267;-78
2023/10/28 15:13:19;;;;;;;14.07;12.77;;;11.80;81.60;;;;;;6286855;28;20920;-78
2023/10/28 15:16:22;;;;;;;13.93;12.57;;;11.70;81.90;;;;;;6286295;28;20256;-78
2023/10/28 15:19:25;;;;;;;13.50;11.17;;;11.70;82.00;;;;;;6285007;28;20230;-79
2023/10/28 15:22:29;;;;;;;12.40;11.27;;;11.70;82.10;;;;;;6282883;28;20215;-79
2023/10/28 15:25:32;;;;;;;14.37;13.00;;;11.70;82.20;;;;;;6272432;28;20254;-80
2023/10/28 15:28:37;;;;;;;14.83;13.43;;;11.60;82.40;;;;;;6275095;28;20211;-82
2023/10/28 15:31:44;;;;;;;13.33;11.97;;;11.60;82.50;;;;;;6255642;28;20292;-79
2023/10/28 15:34:47;;;;;;;12.30;11.33;;;11.60;82.40;;;;;;6285252;28;20226;-78
2023/10/28 15:37:51;;;;;;;13.07;11.93;;;11.50;82.70;;;;;;6275261;28;20230;-79
2023/10/28 15:41:06;;;;;;;13.67;12.40;;;11.50;82.70;;;;;;6288355;28;20226;-79
2023/10/28 15:44:11;;;;;;;14.07;12.00;;;11.50;82.90;;;;;;6282935;28;20230;-77
2023/10/28 15:47:14;;;;;;;13.60;12.20;;;11.50;83.20;;;;;;6289969;28;20294;-81
2023/10/28 15:50:18;;;;;;;12.97;11.77;;;11.50;83.20;;;;;;6293118;28;20230;-79
2023/10/28 15:53:21;;;;;;;11.90;10.80;;;11.40;83.20;;;;;;6253302;28;20229;-78